JBU509 KJFK-MDSD
Flight info
| Callsign | JBU509 |
|---|---|
| Flight time | 3h 21m |
| Altitude | 33000 |
| Route | SHIPP Y488 WEBBB/M077F320 Y488 SAUCR L453 LAMER/N0458F320 L453 RODRK DCT POKEG UT17 KOBET |
| Aircraft | A21N/M-SDE2E3FGHIJ1RWXY/LB1 |
Departure
| Time | 2026-05-05 14:10 |
|---|---|
| Airport | John F. Kennedy International Airport (KJFK) |
Arrival
| Time | 2026-05-05 17:31 |
|---|---|
| Airport | Las Américas International Airport (MDSD) |
| Time | Latitude | Longitude | Altitude | Speed | Heading |
|---|---|---|---|---|---|
| 2026-05-05 13:20 | 40.64669 | -73.77543 | 28 ft | 0 kts | 238° |
| 2026-05-05 13:59 | 40.64686 | -73.77507 | 28 ft | 3 kts | 238° |
| 2026-05-05 13:59 | 40.64696 | -73.77485 | 28 ft | 1 kts | 238° |
| 2026-05-05 14:00 | 40.64716 | -73.77464 | 28 ft | 3 kts | 138° |
| 2026-05-05 14:00 | 40.64723 | -73.77476 | 28 ft | 3 kts | 121° |
| 2026-05-05 14:00 | 40.64732 | -73.77495 | 28 ft | 0 kts | 121° |
| 2026-05-05 14:03 | 40.64729 | -73.77489 | 28 ft | 2 kts | 121° |
| 2026-05-05 14:03 | 40.64715 | -73.77459 | 28 ft | 5 kts | 116° |
| 2026-05-05 14:03 | 40.64725 | -73.77412 | 28 ft | 6 kts | 57° |
| 2026-05-05 14:03 | 40.64753 | -73.77362 | 28 ft | 8 kts | 39° |
| 2026-05-05 14:04 | 40.64809 | -73.77341 | 29 ft | 9 kts | 28° |
| 2026-05-05 14:04 | 40.64847 | -73.77274 | 29 ft | 11 kts | 111° |
| 2026-05-05 14:04 | 40.64814 | -73.77178 | 29 ft | 12 kts | 115° |
| 2026-05-05 14:04 | 40.64822 | -73.77074 | 28 ft | 12 kts | 50° |
| 2026-05-05 14:05 | 40.64874 | -73.76985 | 25 ft | 13 kts | 54° |
| 2026-05-05 14:05 | 40.64922 | -73.76881 | 27 ft | 14 kts | 88° |
| 2026-05-05 14:05 | 40.64913 | -73.76837 | 27 ft | 0 kts | 129° |
| 2026-05-05 14:06 | 40.64912 | -73.76837 | 27 ft | 0 kts | 129° |
| 2026-05-05 14:06 | 40.64912 | -73.76836 | 27 ft | 0 kts | 129° |
| 2026-05-05 14:06 | 40.64902 | -73.76820 | 27 ft | 5 kts | 129° |
| 2026-05-05 14:06 | 40.64879 | -73.76773 | 27 ft | 7 kts | 118° |
| 2026-05-05 14:07 | 40.64871 | -73.76708 | 27 ft | 8 kts | 59° |
| 2026-05-05 14:07 | 40.64924 | -73.76664 | 27 ft | 10 kts | 31° |
| 2026-05-05 14:07 | 40.64985 | -73.76614 | 27 ft | 11 kts | 32° |
| 2026-05-05 14:07 | 40.65054 | -73.76558 | 27 ft | 12 kts | 32° |
| 2026-05-05 14:08 | 40.65100 | -73.76492 | 27 ft | 7 kts | 102° |
| 2026-05-05 14:08 | 40.65075 | -73.76427 | 28 ft | 9 kts | 120° |
| 2026-05-05 14:08 | 40.65035 | -73.76360 | 28 ft | 10 kts | 185° |
| 2026-05-05 14:08 | 40.64985 | -73.76387 | 28 ft | 0 kts | 210° |
| 2026-05-05 14:09 | 40.64957 | -73.76408 | 28 ft | 24 kts | 210° |
| 2026-05-05 14:09 | 40.64593 | -73.76686 | 25 ft | 88 kts | 211° |
| 2026-05-05 14:09 | 40.63871 | -73.77253 | 27 ft | 154 kts | 211° |
| 2026-05-05 14:09 | 40.62833 | -73.78090 | 275 ft | 181 kts | 211° |
| 2026-05-05 14:10 | 40.61774 | -73.78921 | 1024 ft | 174 kts | 209° |
| 2026-05-05 14:10 | 40.60704 | -73.79758 | 1472 ft | 185 kts | 210° |
| 2026-05-05 14:10 | 40.59565 | -73.80666 | 1861 ft | 197 kts | 210° |
| 2026-05-05 14:10 | 40.58353 | -73.81631 | 2261 ft | 211 kts | 210° |
| 2026-05-05 14:11 | 40.57038 | -73.82682 | 2542 ft | 228 kts | 212° |
| 2026-05-05 14:11 | 40.55642 | -73.83800 | 2881 ft | 241 kts | 213° |
| 2026-05-05 14:11 | 40.54171 | -73.84978 | 3380 ft | 252 kts | 213° |
| 2026-05-05 14:11 | 40.52662 | -73.86184 | 4158 ft | 254 kts | 213° |
| 2026-05-05 14:12 | 40.51141 | -73.87326 | 4949 ft | 259 kts | 204° |
| 2026-05-05 14:12 | 40.49348 | -73.87745 | 5757 ft | 265 kts | 183° |
| 2026-05-05 14:12 | 40.47503 | -73.87402 | 6545 ft | 273 kts | 163° |
| 2026-05-05 14:12 | 40.45858 | -73.86113 | 7296 ft | 282 kts | 139° |
| 2026-05-05 14:13 | 40.44735 | -73.83969 | 8021 ft | 291 kts | 114° |
| 2026-05-05 14:13 | 40.44165 | -73.81385 | 8764 ft | 296 kts | 105° |
| 2026-05-05 14:13 | 40.43705 | -73.78773 | 9461 ft | 299 kts | 105° |
| 2026-05-05 14:13 | 40.43219 | -73.76093 | 10169 ft | 303 kts | 105° |
| 2026-05-05 14:14 | 40.42697 | -73.73344 | 10572 ft | 318 kts | 106° |
| 2026-05-05 14:14 | 40.42135 | -73.70444 | 10872 ft | 336 kts | 106° |
| 2026-05-05 14:14 | 40.41538 | -73.67399 | 11143 ft | 353 kts | 106° |
| 2026-05-05 14:14 | 40.40904 | -73.64207 | 11513 ft | 366 kts | 106° |
| 2026-05-05 14:15 | 40.40262 | -73.60984 | 12132 ft | 370 kts | 106° |
| 2026-05-05 14:15 | 40.39605 | -73.57696 | 12810 ft | 373 kts | 106° |
| 2026-05-05 14:15 | 40.38938 | -73.54388 | 13452 ft | 377 kts | 106° |
| 2026-05-05 14:15 | 40.38263 | -73.51048 | 14073 ft | 380 kts | 106° |
| 2026-05-05 14:16 | 40.37806 | -73.48781 | 14493 ft | 383 kts | 106° |
| 2026-05-05 14:16 | 40.37129 | -73.45421 | 15099 ft | 387 kts | 106° |
| 2026-05-05 14:16 | 40.36438 | -73.41991 | 15698 ft | 390 kts | 106° |
| 2026-05-05 14:16 | 40.35739 | -73.38523 | 16276 ft | 393 kts | 106° |
| 2026-05-05 14:17 | 40.35033 | -73.35039 | 16836 ft | 397 kts | 106° |
| 2026-05-05 14:17 | 40.34317 | -73.31516 | 17386 ft | 401 kts | 106° |
| 2026-05-05 14:17 | 40.33600 | -73.28007 | 17933 ft | 404 kts | 107° |
| 2026-05-05 14:17 | 40.32704 | -73.24508 | 18450 ft | 405 kts | 117° |
| 2026-05-05 14:18 | 40.31297 | -73.21309 | 18989 ft | 406 kts | 124° |
| 2026-05-05 14:18 | 40.29737 | -73.18202 | 19525 ft | 408 kts | 126° |
| 2026-05-05 14:18 | 40.28160 | -73.15101 | 20014 ft | 411 kts | 125° |
| 2026-05-05 14:18 | 40.26577 | -73.11963 | 20522 ft | 414 kts | 125° |
| 2026-05-05 14:19 | 40.24993 | -73.08800 | 21013 ft | 416 kts | 125° |
| 2026-05-05 14:19 | 40.23422 | -73.05664 | 21483 ft | 419 kts | 125° |
| 2026-05-05 14:19 | 40.21813 | -73.02458 | 21940 ft | 421 kts | 125° |
| 2026-05-05 14:19 | 40.20206 | -72.99243 | 22384 ft | 424 kts | 124° |
| 2026-05-05 14:20 | 40.18578 | -72.95995 | 22824 ft | 426 kts | 125° |
| 2026-05-05 14:20 | 40.16960 | -72.92772 | 23243 ft | 429 kts | 125° |
| 2026-05-05 14:20 | 40.15311 | -72.89498 | 23664 ft | 431 kts | 125° |
| 2026-05-05 14:20 | 40.13656 | -72.86208 | 24067 ft | 433 kts | 124° |
| 2026-05-05 14:21 | 40.11993 | -72.82904 | 24461 ft | 435 kts | 124° |
| 2026-05-05 14:21 | 40.10353 | -72.79616 | 24851 ft | 438 kts | 123° |
| 2026-05-05 14:21 | 40.08781 | -72.76192 | 25240 ft | 440 kts | 122° |
| 2026-05-05 14:21 | 40.07224 | -72.72730 | 25607 ft | 442 kts | 122° |
| 2026-05-05 14:22 | 40.05659 | -72.69259 | 25974 ft | 444 kts | 122° |
| 2026-05-05 14:22 | 40.04104 | -72.65824 | 26327 ft | 445 kts | 122° |
| 2026-05-05 14:22 | 40.02522 | -72.62333 | 26672 ft | 447 kts | 122° |
| 2026-05-05 14:22 | 40.00936 | -72.58831 | 27006 ft | 449 kts | 122° |
| 2026-05-05 14:23 | 39.99338 | -72.55314 | 27346 ft | 451 kts | 122° |
| 2026-05-05 14:23 | 39.97724 | -72.51774 | 27677 ft | 453 kts | 122° |
| 2026-05-05 14:23 | 39.96108 | -72.48238 | 27989 ft | 455 kts | 121° |
| 2026-05-05 14:23 | 39.94524 | -72.44664 | 28303 ft | 457 kts | 121° |
| 2026-05-05 14:24 | 39.92949 | -72.41059 | 28603 ft | 458 kts | 121° |
| 2026-05-05 14:24 | 39.91382 | -72.37495 | 28948 ft | 458 kts | 121° |
| 2026-05-05 14:24 | 39.89798 | -72.33898 | 29343 ft | 457 kts | 121° |
| 2026-05-05 14:24 | 39.88221 | -72.30318 | 29695 ft | 456 kts | 121° |
| 2026-05-05 14:25 | 39.86634 | -72.26730 | 30035 ft | 455 kts | 121° |
| 2026-05-05 14:25 | 39.85054 | -72.23152 | 30366 ft | 454 kts | 121° |
| 2026-05-05 14:25 | 39.83485 | -72.19602 | 30664 ft | 454 kts | 121° |
| 2026-05-05 14:25 | 39.81904 | -72.16037 | 30937 ft | 453 kts | 121° |
| 2026-05-05 14:26 | 39.80345 | -72.12525 | 31211 ft | 453 kts | 121° |
| 2026-05-05 14:26 | 39.78771 | -72.08979 | 31482 ft | 453 kts | 121° |
| 2026-05-05 14:26 | 39.77175 | -72.05425 | 31742 ft | 453 kts | 123° |
| 2026-05-05 14:26 | 39.75155 | -72.02314 | 31947 ft | 451 kts | 140° |
| 2026-05-05 14:27 | 39.72556 | -72.00055 | 32153 ft | 449 kts | 155° |
| 2026-05-05 14:27 | 39.69629 | -71.98649 | 32370 ft | 448 kts | 164° |
| 2026-05-05 14:27 | 39.66635 | -71.97503 | 32604 ft | 448 kts | 165° |
| 2026-05-05 14:27 | 39.63687 | -71.96370 | 32825 ft | 448 kts | 164° |
| 2026-05-05 14:28 | 39.60698 | -71.95191 | 32996 ft | 449 kts | 164° |
| 2026-05-05 14:28 | 39.57718 | -71.93988 | 33021 ft | 448 kts | 163° |
| 2026-05-05 14:28 | 39.51739 | -71.91542 | 32982 ft | 448 kts | 163° |
| 2026-05-05 14:29 | 39.45822 | -71.89141 | 32993 ft | 448 kts | 163° |
| 2026-05-05 14:29 | 39.39858 | -71.86735 | 32986 ft | 448 kts | 163° |
| 2026-05-05 14:30 | 39.33922 | -71.84343 | 32995 ft | 448 kts | 163° |
| 2026-05-05 14:30 | 39.27957 | -71.81942 | 32989 ft | 448 kts | 164° |
| 2026-05-05 14:31 | 39.21985 | -71.79544 | 32995 ft | 449 kts | 163° |
| 2026-05-05 14:31 | 39.16058 | -71.77164 | 32996 ft | 448 kts | 163° |
| 2026-05-05 14:32 | 39.10083 | -71.74773 | 32995 ft | 448 kts | 164° |
| 2026-05-05 14:32 | 39.04118 | -71.72389 | 32984 ft | 448 kts | 164° |
| 2026-05-05 14:33 | 38.98193 | -71.70026 | 32997 ft | 448 kts | 164° |
| 2026-05-05 14:33 | 38.92227 | -71.67650 | 33002 ft | 448 kts | 164° |
| 2026-05-05 14:34 | 38.86248 | -71.65276 | 33000 ft | 448 kts | 164° |
| 2026-05-05 14:34 | 38.80322 | -71.62920 | 32999 ft | 449 kts | 164° |
| 2026-05-05 14:35 | 38.74333 | -71.60549 | 33000 ft | 449 kts | 164° |
| 2026-05-05 14:35 | 38.68402 | -71.58202 | 32999 ft | 449 kts | 164° |
| 2026-05-05 14:36 | 38.62410 | -71.55839 | 33002 ft | 449 kts | 164° |
| 2026-05-05 14:36 | 38.56321 | -71.54185 | 33003 ft | 446 kts | 180° |
| 2026-05-05 14:37 | 38.53274 | -71.54480 | 33006 ft | 445 kts | 192° |
| 2026-05-05 14:37 | 38.50317 | -71.55593 | 33014 ft | 443 kts | 202° |
| 2026-05-05 14:37 | 38.44622 | -71.58612 | 33012 ft | 443 kts | 204° |
| 2026-05-05 14:38 | 38.38922 | -71.61608 | 33011 ft | 443 kts | 203° |
| 2026-05-05 14:38 | 38.33181 | -71.64567 | 33010 ft | 443 kts | 203° |
| 2026-05-05 14:39 | 38.27494 | -71.67492 | 33016 ft | 443 kts | 203° |
| 2026-05-05 14:39 | 38.21763 | -71.70433 | 33017 ft | 443 kts | 203° |
| 2026-05-05 14:40 | 38.16033 | -71.73370 | 33020 ft | 443 kts | 203° |
| 2026-05-05 14:40 | 38.10343 | -71.76277 | 33021 ft | 443 kts | 203° |
| 2026-05-05 14:41 | 38.04622 | -71.79195 | 33020 ft | 443 kts | 203° |
| 2026-05-05 14:41 | 37.98883 | -71.82130 | 33021 ft | 443 kts | 203° |
| 2026-05-05 14:42 | 37.93153 | -71.85049 | 33020 ft | 443 kts | 203° |
| 2026-05-05 14:42 | 37.87421 | -71.87961 | 33020 ft | 443 kts | 203° |
| 2026-05-05 14:43 | 37.81717 | -71.90862 | 33026 ft | 443 kts | 203° |
| 2026-05-05 14:43 | 37.76021 | -71.93746 | 33027 ft | 443 kts | 202° |
| 2026-05-05 14:44 | 37.70281 | -71.96627 | 33020 ft | 443 kts | 203° |
| 2026-05-05 14:44 | 37.64616 | -71.99693 | 33026 ft | 442 kts | 206° |
| 2026-05-05 14:45 | 37.59031 | -72.02972 | 33039 ft | 442 kts | 206° |
| 2026-05-05 14:45 | 37.53476 | -72.06216 | 33052 ft | 442 kts | 206° |
| 2026-05-05 14:46 | 37.47885 | -72.09476 | 33060 ft | 442 kts | 206° |
| 2026-05-05 14:46 | 37.42300 | -72.12727 | 33060 ft | 442 kts | 206° |
| 2026-05-05 14:47 | 37.36723 | -72.15964 | 33061 ft | 441 kts | 206° |
| 2026-05-05 14:47 | 37.31136 | -72.19204 | 33070 ft | 441 kts | 206° |
| 2026-05-05 14:48 | 37.25591 | -72.22413 | 33071 ft | 441 kts | 206° |
| 2026-05-05 14:48 | 37.20014 | -72.25640 | 33070 ft | 441 kts | 206° |
| 2026-05-05 14:49 | 37.14443 | -72.28853 | 33069 ft | 440 kts | 206° |
| 2026-05-05 14:49 | 37.08904 | -72.32039 | 33069 ft | 440 kts | 206° |
| 2026-05-05 14:50 | 37.03319 | -72.35256 | 33070 ft | 440 kts | 206° |
| 2026-05-05 14:50 | 36.97778 | -72.38440 | 33070 ft | 440 kts | 206° |
| 2026-05-05 14:51 | 36.92212 | -72.41630 | 33072 ft | 439 kts | 206° |
| 2026-05-05 14:51 | 36.86687 | -72.44800 | 33079 ft | 439 kts | 206° |
| 2026-05-05 14:52 | 36.81117 | -72.47978 | 33080 ft | 439 kts | 206° |
| 2026-05-05 14:52 | 36.75558 | -72.51143 | 33080 ft | 439 kts | 206° |
| 2026-05-05 14:53 | 36.69706 | -72.53187 | 33075 ft | 443 kts | 186° |
| 2026-05-05 14:53 | 36.66617 | -72.53040 | 33079 ft | 447 kts | 173° |
| 2026-05-05 14:53 | 36.63565 | -72.52182 | 33089 ft | 449 kts | 167° |
| 2026-05-05 14:54 | 36.57545 | -72.50096 | 33082 ft | 449 kts | 167° |
| 2026-05-05 14:54 | 36.51534 | -72.48082 | 33078 ft | 447 kts | 167° |
| 2026-05-05 14:55 | 36.45501 | -72.46114 | 33080 ft | 447 kts | 167° |
| 2026-05-05 14:55 | 36.39477 | -72.44158 | 33088 ft | 447 kts | 167° |
| 2026-05-05 14:56 | 36.33482 | -72.42216 | 33090 ft | 447 kts | 167° |
| 2026-05-05 14:56 | 36.27449 | -72.40264 | 33091 ft | 447 kts | 168° |
| 2026-05-05 14:57 | 36.21426 | -72.38321 | 33090 ft | 447 kts | 168° |
| 2026-05-05 14:57 | 36.15398 | -72.36372 | 33091 ft | 447 kts | 168° |
| 2026-05-05 14:58 | 36.09377 | -72.34428 | 33090 ft | 447 kts | 168° |
| 2026-05-05 14:58 | 36.03361 | -72.32778 | 33085 ft | 444 kts | 177° |
| 2026-05-05 14:59 | 35.97197 | -72.32728 | 33119 ft | 442 kts | 183° |
| 2026-05-05 14:59 | 35.91041 | -72.32866 | 33137 ft | 442 kts | 183° |
| 2026-05-05 15:00 | 35.85916 | -72.32949 | 33139 ft | 442 kts | 183° |
| 2026-05-05 15:00 | 35.78740 | -72.33052 | 33140 ft | 442 kts | 183° |
| 2026-05-05 15:01 | 35.73614 | -72.33124 | 33140 ft | 442 kts | 183° |
| 2026-05-05 15:01 | 35.67453 | -72.33214 | 33139 ft | 442 kts | 183° |
| 2026-05-05 15:02 | 35.61314 | -72.33302 | 33148 ft | 440 kts | 182° |
| 2026-05-05 15:02 | 35.55221 | -72.33392 | 33150 ft | 440 kts | 182° |
| 2026-05-05 15:03 | 35.49090 | -72.33477 | 33150 ft | 440 kts | 182° |
| 2026-05-05 15:03 | 35.42961 | -72.33566 | 33151 ft | 440 kts | 182° |
| 2026-05-05 15:04 | 35.36834 | -72.33653 | 33151 ft | 440 kts | 182° |
| 2026-05-05 15:04 | 35.30746 | -72.33743 | 33150 ft | 440 kts | 182° |
| 2026-05-05 15:05 | 35.21557 | -72.33874 | 33156 ft | 440 kts | 182° |
| 2026-05-05 15:06 | 35.15462 | -72.33959 | 33157 ft | 440 kts | 182° |
| 2026-05-05 15:06 | 35.09324 | -72.34048 | 33153 ft | 440 kts | 182° |
| 2026-05-05 15:07 | 35.03197 | -72.34134 | 33164 ft | 440 kts | 182° |
| 2026-05-05 15:07 | 34.97089 | -72.34252 | 33151 ft | 440 kts | 185° |
| 2026-05-05 15:08 | 34.91016 | -72.35139 | 33159 ft | 439 kts | 189° |
| 2026-05-05 15:08 | 34.84961 | -72.36147 | 33164 ft | 439 kts | 189° |
| 2026-05-05 15:09 | 34.78924 | -72.37138 | 33157 ft | 439 kts | 189° |
| 2026-05-05 15:09 | 34.72853 | -72.38052 | 33150 ft | 440 kts | 184° |
| 2026-05-05 15:10 | 34.66710 | -72.37634 | 33153 ft | 442 kts | 176° |
| 2026-05-05 15:10 | 34.60576 | -72.36933 | 33157 ft | 442 kts | 176° |
| 2026-05-05 15:11 | 34.54472 | -72.36260 | 33161 ft | 442 kts | 176° |
| 2026-05-05 15:11 | 34.48342 | -72.35597 | 33156 ft | 442 kts | 176° |
| 2026-05-05 15:12 | 34.42246 | -72.34937 | 33151 ft | 442 kts | 176° |
| 2026-05-05 15:12 | 34.36113 | -72.34271 | 33156 ft | 442 kts | 176° |
| 2026-05-05 15:13 | 34.29984 | -72.33608 | 33162 ft | 442 kts | 176° |
| 2026-05-05 15:13 | 34.23883 | -72.32951 | 33153 ft | 442 kts | 176° |
| 2026-05-05 15:14 | 34.17757 | -72.32291 | 33150 ft | 442 kts | 176° |
| 2026-05-05 15:14 | 34.11627 | -72.31633 | 33151 ft | 442 kts | 176° |
| 2026-05-05 15:15 | 34.05483 | -72.30974 | 33160 ft | 442 kts | 176° |
| 2026-05-05 15:15 | 33.99400 | -72.30317 | 33166 ft | 442 kts | 176° |
| 2026-05-05 15:16 | 33.93337 | -72.28892 | 33158 ft | 444 kts | 168° |
| 2026-05-05 15:16 | 33.87316 | -72.27203 | 33167 ft | 444 kts | 169° |
| 2026-05-05 15:17 | 33.81292 | -72.25543 | 33160 ft | 444 kts | 169° |
| 2026-05-05 15:17 | 33.75295 | -72.23899 | 33162 ft | 443 kts | 169° |
| 2026-05-05 15:18 | 33.69281 | -72.22252 | 33162 ft | 443 kts | 169° |
| 2026-05-05 15:18 | 33.63263 | -72.20605 | 33152 ft | 443 kts | 169° |
| 2026-05-05 15:19 | 33.57249 | -72.18964 | 33167 ft | 443 kts | 169° |
| 2026-05-05 15:19 | 33.51271 | -72.17332 | 33164 ft | 443 kts | 169° |
| 2026-05-05 15:20 | 33.45248 | -72.15693 | 33164 ft | 443 kts | 169° |
| 2026-05-05 15:20 | 33.39245 | -72.14060 | 33152 ft | 442 kts | 169° |
| 2026-05-05 15:21 | 33.33237 | -72.12431 | 33159 ft | 442 kts | 169° |
| 2026-05-05 15:21 | 33.27234 | -72.10804 | 33167 ft | 442 kts | 169° |
| 2026-05-05 15:22 | 33.21265 | -72.09189 | 33167 ft | 442 kts | 169° |
| 2026-05-05 15:22 | 33.15255 | -72.07564 | 33157 ft | 442 kts | 169° |
| 2026-05-05 15:23 | 33.09246 | -72.05937 | 33167 ft | 442 kts | 169° |
| 2026-05-05 15:23 | 33.03285 | -72.04330 | 33168 ft | 442 kts | 169° |
| 2026-05-05 15:24 | 32.97277 | -72.02713 | 33167 ft | 441 kts | 169° |
| 2026-05-05 15:24 | 32.91274 | -72.01099 | 33154 ft | 441 kts | 170° |
| 2026-05-05 15:25 | 32.85316 | -71.99503 | 33161 ft | 440 kts | 170° |
| 2026-05-05 15:25 | 32.79332 | -71.97900 | 33157 ft | 439 kts | 170° |
| 2026-05-05 15:26 | 32.73397 | -71.96311 | 33158 ft | 439 kts | 170° |
| 2026-05-05 15:26 | 32.67428 | -71.94710 | 33155 ft | 439 kts | 170° |
| 2026-05-05 15:27 | 32.61500 | -71.93124 | 33158 ft | 438 kts | 171° |
| 2026-05-05 15:27 | 32.55548 | -71.91538 | 33165 ft | 438 kts | 171° |
| 2026-05-05 15:28 | 32.49588 | -71.89950 | 33166 ft | 438 kts | 171° |
| 2026-05-05 15:28 | 32.43622 | -71.88363 | 33162 ft | 438 kts | 171° |
| 2026-05-05 15:29 | 32.37670 | -71.86783 | 33165 ft | 438 kts | 171° |
| 2026-05-05 15:29 | 32.31726 | -71.85206 | 33172 ft | 438 kts | 171° |
| 2026-05-05 15:30 | 32.25773 | -71.83626 | 33166 ft | 438 kts | 171° |
| 2026-05-05 15:30 | 32.19848 | -71.82059 | 33166 ft | 438 kts | 171° |
| 2026-05-05 15:31 | 32.13885 | -71.80486 | 33156 ft | 438 kts | 171° |
| 2026-05-05 15:31 | 32.07922 | -71.78912 | 33166 ft | 438 kts | 171° |
| 2026-05-05 15:32 | 32.01968 | -71.77343 | 33156 ft | 438 kts | 171° |
| 2026-05-05 15:32 | 31.96048 | -71.75785 | 33166 ft | 438 kts | 171° |
| 2026-05-05 15:33 | 31.90085 | -71.74219 | 33150 ft | 438 kts | 171° |
| 2026-05-05 15:33 | 31.84161 | -71.72663 | 33169 ft | 438 kts | 171° |
| 2026-05-05 15:34 | 31.78194 | -71.71101 | 33162 ft | 438 kts | 171° |
| 2026-05-05 15:34 | 31.72248 | -71.69545 | 33173 ft | 437 kts | 171° |
| 2026-05-05 15:35 | 31.66334 | -71.68000 | 33166 ft | 438 kts | 171° |
| 2026-05-05 15:35 | 31.60380 | -71.66445 | 33152 ft | 438 kts | 171° |
| 2026-05-05 15:36 | 31.54424 | -71.64892 | 33167 ft | 438 kts | 171° |
| 2026-05-05 15:36 | 31.48504 | -71.63351 | 33151 ft | 438 kts | 171° |
| 2026-05-05 15:37 | 31.42541 | -71.61801 | 33162 ft | 438 kts | 171° |
| 2026-05-05 15:37 | 31.36571 | -71.60251 | 33152 ft | 438 kts | 171° |
| 2026-05-05 15:38 | 31.30643 | -71.58711 | 33166 ft | 438 kts | 171° |
| 2026-05-05 15:38 | 31.24667 | -71.57164 | 33169 ft | 439 kts | 171° |
| 2026-05-05 15:39 | 31.18732 | -71.55631 | 33173 ft | 439 kts | 171° |
| 2026-05-05 15:39 | 31.12771 | -71.54090 | 33173 ft | 439 kts | 171° |
| 2026-05-05 15:40 | 31.06800 | -71.52549 | 33161 ft | 439 kts | 171° |
| 2026-05-05 15:40 | 31.00826 | -71.51009 | 33156 ft | 439 kts | 171° |
| 2026-05-05 15:41 | 30.94884 | -71.49482 | 33164 ft | 439 kts | 171° |
| 2026-05-05 15:41 | 30.88902 | -71.47943 | 33150 ft | 439 kts | 171° |
| 2026-05-05 15:42 | 30.82919 | -71.46407 | 33151 ft | 439 kts | 171° |
| 2026-05-05 15:42 | 30.76978 | -71.44885 | 33151 ft | 439 kts | 171° |
| 2026-05-05 15:43 | 30.71001 | -71.43353 | 33151 ft | 439 kts | 171° |
| 2026-05-05 15:43 | 30.65057 | -71.41834 | 33151 ft | 439 kts | 171° |
| 2026-05-05 15:44 | 30.59075 | -71.40306 | 33151 ft | 440 kts | 171° |
| 2026-05-05 15:44 | 30.53096 | -71.38780 | 33148 ft | 440 kts | 171° |
| 2026-05-05 15:45 | 30.47150 | -71.37266 | 33149 ft | 440 kts | 171° |
| 2026-05-05 15:45 | 30.41170 | -71.35745 | 33150 ft | 440 kts | 171° |
| 2026-05-05 15:46 | 30.35184 | -71.34224 | 33150 ft | 440 kts | 171° |
| 2026-05-05 15:46 | 30.30221 | -71.32964 | 33151 ft | 440 kts | 171° |
| 2026-05-05 15:47 | 30.24230 | -71.31444 | 33149 ft | 440 kts | 171° |
| 2026-05-05 15:47 | 30.18248 | -71.29931 | 33150 ft | 440 kts | 171° |
| 2026-05-05 15:48 | 30.12263 | -71.28419 | 33150 ft | 440 kts | 171° |
| 2026-05-05 15:48 | 30.06287 | -71.26907 | 33148 ft | 440 kts | 171° |
| 2026-05-05 15:49 | 30.00318 | -71.25403 | 33148 ft | 440 kts | 171° |
| 2026-05-05 15:49 | 29.94329 | -71.23895 | 33150 ft | 441 kts | 171° |
| 2026-05-05 15:50 | 29.88355 | -71.22389 | 33150 ft | 441 kts | 171° |
| 2026-05-05 15:50 | 29.82373 | -71.20887 | 33143 ft | 441 kts | 172° |
| 2026-05-05 15:51 | 29.76360 | -71.19378 | 33139 ft | 441 kts | 172° |
| 2026-05-05 15:51 | 29.70353 | -71.17871 | 33141 ft | 441 kts | 172° |
| 2026-05-05 15:52 | 29.64363 | -71.16373 | 33148 ft | 441 kts | 171° |
| 2026-05-05 15:52 | 29.58366 | -71.14870 | 33149 ft | 441 kts | 172° |
| 2026-05-05 15:53 | 29.52388 | -71.13377 | 33151 ft | 441 kts | 172° |
| 2026-05-05 15:53 | 29.46376 | -71.11878 | 33150 ft | 441 kts | 172° |
| 2026-05-05 15:54 | 29.40397 | -71.10388 | 33151 ft | 441 kts | 172° |
| 2026-05-05 15:54 | 29.34381 | -71.08892 | 33151 ft | 441 kts | 172° |
| 2026-05-05 15:55 | 29.28373 | -71.07401 | 33151 ft | 441 kts | 172° |
| 2026-05-05 15:55 | 29.22404 | -71.05916 | 33149 ft | 442 kts | 172° |
| 2026-05-05 15:56 | 29.16378 | -71.04420 | 33149 ft | 442 kts | 172° |
| 2026-05-05 15:56 | 29.10366 | -71.02928 | 33150 ft | 442 kts | 172° |
| 2026-05-05 15:57 | 29.04376 | -71.01449 | 33149 ft | 441 kts | 172° |
| 2026-05-05 15:57 | 28.98366 | -70.99964 | 33152 ft | 441 kts | 172° |
| 2026-05-05 15:58 | 28.92390 | -70.98489 | 33150 ft | 441 kts | 172° |
| 2026-05-05 15:58 | 28.86383 | -70.97006 | 33150 ft | 441 kts | 172° |
| 2026-05-05 15:59 | 28.80364 | -70.95528 | 33150 ft | 441 kts | 172° |
| 2026-05-05 15:59 | 28.74385 | -70.94060 | 33144 ft | 442 kts | 172° |
| 2026-05-05 16:00 | 28.68368 | -70.92577 | 33140 ft | 441 kts | 172° |
| 2026-05-05 16:00 | 28.62344 | -70.91098 | 33141 ft | 441 kts | 172° |
| 2026-05-05 16:01 | 28.56364 | -70.89638 | 33140 ft | 441 kts | 172° |
| 2026-05-05 16:01 | 28.50355 | -70.88166 | 33140 ft | 441 kts | 172° |
| 2026-05-05 16:02 | 28.44373 | -70.86702 | 33140 ft | 441 kts | 172° |
| 2026-05-05 16:02 | 28.38366 | -70.85234 | 33139 ft | 441 kts | 172° |
| 2026-05-05 16:03 | 28.32350 | -70.83766 | 33141 ft | 441 kts | 172° |
| 2026-05-05 16:03 | 28.26336 | -70.82304 | 33141 ft | 441 kts | 172° |
| 2026-05-05 16:04 | 28.20361 | -70.80848 | 33141 ft | 441 kts | 172° |
| 2026-05-05 16:04 | 28.14350 | -70.79384 | 33141 ft | 441 kts | 172° |
| 2026-05-05 16:05 | 28.08335 | -70.77928 | 33141 ft | 441 kts | 172° |
| 2026-05-05 16:05 | 28.02326 | -70.76472 | 33140 ft | 441 kts | 172° |
| 2026-05-05 16:06 | 27.96342 | -70.75021 | 33139 ft | 442 kts | 172° |
| 2026-05-05 16:06 | 27.90317 | -70.73565 | 33141 ft | 442 kts | 172° |
| 2026-05-05 16:07 | 27.84286 | -70.72105 | 33141 ft | 442 kts | 172° |
| 2026-05-05 16:07 | 27.78296 | -70.70658 | 33139 ft | 442 kts | 172° |
| 2026-05-05 16:08 | 27.72273 | -70.69207 | 33141 ft | 442 kts | 172° |
| 2026-05-05 16:08 | 27.66252 | -70.67756 | 33140 ft | 442 kts | 172° |
| 2026-05-05 16:09 | 27.60262 | -70.66316 | 33141 ft | 442 kts | 172° |
| 2026-05-05 16:09 | 27.54239 | -70.64874 | 33141 ft | 442 kts | 172° |
| 2026-05-05 16:10 | 27.48216 | -70.63422 | 33132 ft | 443 kts | 172° |
| 2026-05-05 16:10 | 27.42189 | -70.61978 | 33131 ft | 443 kts | 172° |
| 2026-05-05 16:11 | 27.36165 | -70.60533 | 33131 ft | 443 kts | 172° |
| 2026-05-05 16:12 | 27.24123 | -70.57656 | 33140 ft | 443 kts | 172° |
| 2026-05-05 16:13 | 27.09036 | -70.54056 | 33139 ft | 444 kts | 172° |
| 2026-05-05 16:13 | 27.02995 | -70.52618 | 33139 ft | 444 kts | 172° |
| 2026-05-05 16:14 | 26.90888 | -70.49742 | 33130 ft | 444 kts | 172° |
| 2026-05-05 16:15 | 26.78793 | -70.46875 | 33130 ft | 445 kts | 172° |
| 2026-05-05 16:16 | 26.66656 | -70.43998 | 33120 ft | 445 kts | 172° |
| 2026-05-05 16:17 | 26.57601 | -70.41861 | 33120 ft | 445 kts | 172° |
| 2026-05-05 16:18 | 26.48524 | -70.39727 | 33121 ft | 445 kts | 172° |
| 2026-05-05 16:19 | 26.39454 | -70.37584 | 33119 ft | 445 kts | 172° |
| 2026-05-05 16:19 | 26.30335 | -70.35442 | 33123 ft | 445 kts | 172° |
| 2026-05-05 16:20 | 26.18211 | -70.32597 | 33121 ft | 445 kts | 172° |
| 2026-05-05 16:22 | 26.03060 | -70.29052 | 33120 ft | 445 kts | 172° |
| 2026-05-05 16:23 | 25.90936 | -70.26222 | 33074 ft | 446 kts | 172° |
| 2026-05-05 16:23 | 25.81810 | -70.24094 | 33061 ft | 446 kts | 172° |
| 2026-05-05 16:24 | 25.75732 | -70.22680 | 33060 ft | 446 kts | 172° |
| 2026-05-05 16:25 | 25.66646 | -70.20570 | 33061 ft | 447 kts | 172° |
| 2026-05-05 16:25 | 25.57499 | -70.18445 | 33058 ft | 447 kts | 172° |
| 2026-05-05 16:26 | 25.45359 | -70.15635 | 33060 ft | 446 kts | 172° |
| 2026-05-05 16:27 | 25.39262 | -70.14223 | 33060 ft | 447 kts | 172° |
| 2026-05-05 16:27 | 25.33166 | -70.12813 | 33061 ft | 447 kts | 172° |
| 2026-05-05 16:28 | 25.27107 | -70.11417 | 33062 ft | 447 kts | 172° |
| 2026-05-05 16:28 | 25.21007 | -70.10008 | 33060 ft | 448 kts | 172° |
| 2026-05-05 16:29 | 25.14899 | -70.08600 | 33060 ft | 448 kts | 172° |
| 2026-05-05 16:29 | 25.08782 | -70.07193 | 33060 ft | 448 kts | 172° |
| 2026-05-05 16:30 | 25.02709 | -70.05798 | 33061 ft | 448 kts | 172° |
| 2026-05-05 16:30 | 24.96546 | -70.04977 | 33063 ft | 445 kts | 181° |
| 2026-05-05 16:31 | 24.91387 | -70.04758 | 33059 ft | 445 kts | 181° |
| 2026-05-05 16:31 | 24.84180 | -70.04445 | 33060 ft | 446 kts | 181° |
| 2026-05-05 16:32 | 24.78980 | -70.04207 | 33059 ft | 446 kts | 181° |
| 2026-05-05 16:32 | 24.72814 | -70.03922 | 33052 ft | 446 kts | 181° |
| 2026-05-05 16:33 | 24.66582 | -70.03634 | 33050 ft | 446 kts | 181° |
| 2026-05-05 16:33 | 24.60366 | -70.03348 | 33050 ft | 447 kts | 181° |
| 2026-05-05 16:34 | 24.54173 | -70.03065 | 33051 ft | 447 kts | 181° |
| 2026-05-05 16:34 | 24.47983 | -70.02782 | 33050 ft | 447 kts | 181° |
| 2026-05-05 16:35 | 24.41747 | -70.02497 | 33051 ft | 448 kts | 181° |
| 2026-05-05 16:35 | 24.35510 | -70.02209 | 33050 ft | 448 kts | 181° |
| 2026-05-05 16:36 | 24.29272 | -70.01924 | 33050 ft | 448 kts | 181° |
| 2026-05-05 16:36 | 24.23075 | -70.01641 | 33051 ft | 448 kts | 181° |
| 2026-05-05 16:37 | 24.16832 | -70.01406 | 33050 ft | 446 kts | 183° |
| 2026-05-05 16:37 | 24.10610 | -70.01464 | 33050 ft | 446 kts | 184° |
| 2026-05-05 16:38 | 24.04425 | -70.01531 | 33066 ft | 446 kts | 184° |
| 2026-05-05 16:38 | 23.98237 | -70.01595 | 33071 ft | 446 kts | 183° |
| 2026-05-05 16:39 | 23.92027 | -70.01659 | 33069 ft | 446 kts | 184° |
| 2026-05-05 16:39 | 23.85795 | -70.01726 | 33069 ft | 446 kts | 184° |
| 2026-05-05 16:40 | 23.79621 | -70.01793 | 33062 ft | 446 kts | 184° |
| 2026-05-05 16:40 | 23.73392 | -70.01857 | 33061 ft | 446 kts | 184° |
| 2026-05-05 16:41 | 23.67166 | -70.01922 | 33060 ft | 447 kts | 184° |
| 2026-05-05 16:41 | 23.60939 | -70.01988 | 33061 ft | 447 kts | 184° |
| 2026-05-05 16:42 | 23.54747 | -70.02053 | 33060 ft | 447 kts | 184° |
| 2026-05-05 16:42 | 23.48511 | -70.02121 | 33056 ft | 447 kts | 184° |
| 2026-05-05 16:43 | 23.42320 | -70.02187 | 33051 ft | 447 kts | 184° |
| 2026-05-05 16:43 | 23.36069 | -70.02252 | 33051 ft | 447 kts | 184° |
| 2026-05-05 16:44 | 23.29866 | -70.02316 | 33050 ft | 448 kts | 184° |
| 2026-05-05 16:44 | 23.23627 | -70.02384 | 33050 ft | 448 kts | 184° |
| 2026-05-05 16:45 | 23.17372 | -70.02446 | 33051 ft | 449 kts | 183° |
| 2026-05-05 16:45 | 23.11148 | -70.02514 | 33050 ft | 449 kts | 183° |
| 2026-05-05 16:46 | 23.04871 | -70.02580 | 33050 ft | 450 kts | 183° |
| 2026-05-05 16:46 | 22.98638 | -70.02640 | 33050 ft | 450 kts | 183° |
| 2026-05-05 16:47 | 22.92363 | -70.02707 | 33051 ft | 450 kts | 183° |
| 2026-05-05 16:47 | 22.86077 | -70.02773 | 33039 ft | 451 kts | 183° |
| 2026-05-05 16:48 | 22.79801 | -70.02839 | 33036 ft | 451 kts | 183° |
| 2026-05-05 16:48 | 22.73556 | -70.02901 | 33043 ft | 452 kts | 183° |
| 2026-05-05 16:49 | 22.67276 | -70.02968 | 33038 ft | 452 kts | 183° |
| 2026-05-05 16:49 | 22.60981 | -70.03033 | 33040 ft | 452 kts | 183° |
| 2026-05-05 16:50 | 22.54682 | -70.03097 | 33037 ft | 452 kts | 183° |
| 2026-05-05 16:50 | 22.48385 | -70.03161 | 33040 ft | 452 kts | 183° |
| 2026-05-05 16:51 | 22.42111 | -70.03228 | 33038 ft | 452 kts | 183° |
| 2026-05-05 16:51 | 22.35798 | -70.03295 | 33042 ft | 452 kts | 183° |
| 2026-05-05 16:52 | 22.29527 | -70.03359 | 33044 ft | 453 kts | 183° |
| 2026-05-05 16:52 | 22.23223 | -70.03422 | 33040 ft | 453 kts | 183° |
| 2026-05-05 16:53 | 22.16910 | -70.03488 | 33038 ft | 453 kts | 183° |
| 2026-05-05 16:53 | 22.10607 | -70.03549 | 33039 ft | 453 kts | 183° |
| 2026-05-05 16:54 | 22.04326 | -70.03616 | 33043 ft | 453 kts | 183° |
| 2026-05-05 16:54 | 21.98018 | -70.03684 | 33038 ft | 453 kts | 183° |
| 2026-05-05 16:55 | 21.91732 | -70.03750 | 33037 ft | 453 kts | 183° |
| 2026-05-05 16:55 | 21.85415 | -70.03813 | 33028 ft | 453 kts | 183° |
| 2026-05-05 16:56 | 21.79130 | -70.03876 | 33027 ft | 453 kts | 183° |
| 2026-05-05 16:56 | 21.72813 | -70.03942 | 33031 ft | 453 kts | 183° |
| 2026-05-05 16:57 | 21.66499 | -70.04006 | 33028 ft | 453 kts | 183° |
| 2026-05-05 16:57 | 21.60220 | -70.04074 | 33029 ft | 453 kts | 183° |
| 2026-05-05 16:58 | 21.53900 | -70.04135 | 33033 ft | 453 kts | 183° |
| 2026-05-05 16:58 | 21.47622 | -70.04199 | 33034 ft | 453 kts | 183° |
| 2026-05-05 16:59 | 21.41324 | -70.04261 | 33031 ft | 453 kts | 183° |
| 2026-05-05 16:59 | 21.35015 | -70.04327 | 33034 ft | 453 kts | 183° |
| 2026-05-05 17:00 | 21.28703 | -70.04392 | 33030 ft | 453 kts | 183° |
| 2026-05-05 17:00 | 21.22430 | -70.04455 | 33031 ft | 452 kts | 183° |
| 2026-05-05 17:01 | 21.16132 | -70.04519 | 33030 ft | 452 kts | 183° |
| 2026-05-05 17:01 | 21.09830 | -70.04583 | 33033 ft | 452 kts | 183° |
| 2026-05-05 17:02 | 21.03532 | -70.04647 | 33030 ft | 452 kts | 183° |
| 2026-05-05 17:02 | 20.97261 | -70.04710 | 33033 ft | 452 kts | 183° |
| 2026-05-05 17:03 | 20.90969 | -70.04775 | 33030 ft | 452 kts | 183° |
| 2026-05-05 17:03 | 20.84663 | -70.04837 | 33030 ft | 451 kts | 183° |
| 2026-05-05 17:04 | 20.78370 | -70.04901 | 33033 ft | 452 kts | 183° |
| 2026-05-05 17:04 | 20.72130 | -70.04964 | 33028 ft | 451 kts | 183° |
| 2026-05-05 17:05 | 20.65830 | -70.05029 | 33034 ft | 451 kts | 183° |
| 2026-05-05 17:05 | 20.59550 | -70.05091 | 33032 ft | 450 kts | 183° |
| 2026-05-05 17:06 | 20.53316 | -70.05154 | 33030 ft | 450 kts | 183° |
| 2026-05-05 17:06 | 20.47028 | -70.05217 | 33028 ft | 450 kts | 183° |
| 2026-05-05 17:07 | 20.43942 | -70.05248 | 32861 ft | 446 kts | 183° |
| 2026-05-05 17:07 | 20.40836 | -70.05279 | 31990 ft | 449 kts | 183° |
| 2026-05-05 17:07 | 20.37690 | -70.05313 | 31077 ft | 452 kts | 183° |
| 2026-05-05 17:07 | 20.34549 | -70.05344 | 30388 ft | 451 kts | 183° |
| 2026-05-05 17:08 | 20.31416 | -70.05374 | 29770 ft | 447 kts | 183° |
| 2026-05-05 17:08 | 20.28345 | -70.05405 | 29156 ft | 444 kts | 182° |
| 2026-05-05 17:08 | 20.25255 | -70.05437 | 28547 ft | 441 kts | 182° |
| 2026-05-05 17:08 | 20.22194 | -70.05467 | 27951 ft | 437 kts | 182° |
| 2026-05-05 17:09 | 20.19158 | -70.05397 | 27381 ft | 433 kts | 176° |
| 2026-05-05 17:09 | 20.16248 | -70.04819 | 27083 ft | 431 kts | 165° |
| 2026-05-05 17:09 | 20.13434 | -70.03679 | 27022 ft | 432 kts | 158° |
| 2026-05-05 17:09 | 20.10687 | -70.02365 | 27016 ft | 432 kts | 157° |
| 2026-05-05 17:10 | 20.07950 | -70.01037 | 26875 ft | 430 kts | 157° |
| 2026-05-05 17:10 | 20.05215 | -69.99721 | 25960 ft | 433 kts | 157° |
| 2026-05-05 17:10 | 20.02435 | -69.98404 | 24873 ft | 439 kts | 157° |
| 2026-05-05 17:10 | 19.99674 | -69.97100 | 24103 ft | 437 kts | 157° |
| 2026-05-05 17:11 | 19.96921 | -69.95802 | 23615 ft | 427 kts | 157° |
| 2026-05-05 17:11 | 19.94224 | -69.94527 | 23203 ft | 417 kts | 157° |
| 2026-05-05 17:11 | 19.91634 | -69.93303 | 22818 ft | 407 kts | 157° |
| 2026-05-05 17:11 | 19.89076 | -69.92095 | 22430 ft | 399 kts | 157° |
| 2026-05-05 17:12 | 19.86562 | -69.90912 | 22043 ft | 392 kts | 157° |
| 2026-05-05 17:12 | 19.84080 | -69.89748 | 21660 ft | 386 kts | 157° |
| 2026-05-05 17:12 | 19.81644 | -69.88604 | 21272 ft | 380 kts | 157° |
| 2026-05-05 17:12 | 19.79241 | -69.87475 | 20890 ft | 374 kts | 157° |
| 2026-05-05 17:13 | 19.76874 | -69.86363 | 20512 ft | 368 kts | 157° |
| 2026-05-05 17:13 | 19.74544 | -69.85268 | 20140 ft | 364 kts | 157° |
| 2026-05-05 17:13 | 19.72256 | -69.84193 | 19777 ft | 362 kts | 158° |
| 2026-05-05 17:13 | 19.69961 | -69.83114 | 19414 ft | 360 kts | 158° |
| 2026-05-05 17:14 | 19.67671 | -69.82040 | 19049 ft | 357 kts | 158° |
| 2026-05-05 17:14 | 19.65394 | -69.80970 | 18692 ft | 355 kts | 158° |
| 2026-05-05 17:14 | 19.63167 | -69.79925 | 18332 ft | 353 kts | 158° |
| 2026-05-05 17:14 | 19.60914 | -69.78867 | 17970 ft | 351 kts | 158° |
| 2026-05-05 17:15 | 19.58689 | -69.77824 | 17613 ft | 349 kts | 158° |
| 2026-05-05 17:15 | 19.56469 | -69.76783 | 17260 ft | 347 kts | 158° |
| 2026-05-05 17:15 | 19.54257 | -69.75745 | 16904 ft | 345 kts | 158° |
| 2026-05-05 17:15 | 19.52090 | -69.74730 | 16556 ft | 343 kts | 158° |
| 2026-05-05 17:16 | 19.49916 | -69.73712 | 16207 ft | 341 kts | 157° |
| 2026-05-05 17:16 | 19.47749 | -69.72698 | 15859 ft | 339 kts | 157° |
| 2026-05-05 17:16 | 19.45545 | -69.71841 | 15499 ft | 335 kts | 169° |
| 2026-05-05 17:16 | 19.43230 | -69.71582 | 15158 ft | 333 kts | 178° |
| 2026-05-05 17:17 | 19.40922 | -69.71489 | 14815 ft | 331 kts | 179° |
| 2026-05-05 17:17 | 19.38618 | -69.71401 | 14462 ft | 329 kts | 178° |
| 2026-05-05 17:17 | 19.36354 | -69.71305 | 14098 ft | 334 kts | 178° |
| 2026-05-05 17:17 | 19.33949 | -69.71196 | 13791 ft | 348 kts | 178° |
| 2026-05-05 17:18 | 19.31529 | -69.71078 | 13455 ft | 347 kts | 178° |
| 2026-05-05 17:18 | 19.29935 | -69.71000 | 13230 ft | 345 kts | 178° |
| 2026-05-05 17:18 | 19.27538 | -69.70882 | 12875 ft | 344 kts | 178° |
| 2026-05-05 17:18 | 19.25150 | -69.70765 | 12524 ft | 342 kts | 177° |
| 2026-05-05 17:19 | 19.22769 | -69.70648 | 12177 ft | 340 kts | 177° |
| 2026-05-05 17:19 | 19.20411 | -69.70532 | 11819 ft | 338 kts | 177° |
| 2026-05-05 17:19 | 19.18073 | -69.70417 | 11464 ft | 336 kts | 177° |
| 2026-05-05 17:19 | 19.15764 | -69.70303 | 11113 ft | 334 kts | 177° |
| 2026-05-05 17:20 | 19.13466 | -69.70190 | 10753 ft | 326 kts | 177° |
| 2026-05-05 17:20 | 19.11224 | -69.70079 | 10407 ft | 317 kts | 177° |
| 2026-05-05 17:20 | 19.09043 | -69.69971 | 10084 ft | 309 kts | 177° |
| 2026-05-05 17:20 | 19.06919 | -69.69865 | 9746 ft | 302 kts | 176° |
| 2026-05-05 17:21 | 19.04846 | -69.69775 | 9414 ft | 296 kts | 178° |
| 2026-05-05 17:21 | 19.02807 | -69.69751 | 9081 ft | 290 kts | 179° |
| 2026-05-05 17:21 | 19.00794 | -69.69739 | 8764 ft | 288 kts | 179° |
| 2026-05-05 17:22 | 18.96829 | -69.69715 | 8106 ft | 284 kts | 179° |
| 2026-05-05 17:22 | 18.94856 | -69.69701 | 7769 ft | 283 kts | 179° |
| 2026-05-05 17:22 | 18.92900 | -69.69688 | 7465 ft | 278 kts | 178° |
| 2026-05-05 17:22 | 18.90975 | -69.69674 | 7146 ft | 277 kts | 178° |
| 2026-05-05 17:23 | 18.89044 | -69.69661 | 6863 ft | 277 kts | 179° |
| 2026-05-05 17:23 | 18.87120 | -69.69799 | 6551 ft | 276 kts | 185° |
| 2026-05-05 17:23 | 18.85215 | -69.70041 | 6255 ft | 274 kts | 185° |
| 2026-05-05 17:23 | 18.83328 | -69.70287 | 5951 ft | 273 kts | 185° |
| 2026-05-05 17:24 | 18.81461 | -69.70531 | 5666 ft | 271 kts | 186° |
| 2026-05-05 17:24 | 18.79589 | -69.70773 | 5372 ft | 270 kts | 185° |
| 2026-05-05 17:24 | 18.77724 | -69.71014 | 5085 ft | 269 kts | 185° |
| 2026-05-05 17:24 | 18.75869 | -69.71253 | 4825 ft | 268 kts | 185° |
| 2026-05-05 17:25 | 18.74018 | -69.71492 | 4510 ft | 265 kts | 185° |
| 2026-05-05 17:25 | 18.72813 | -69.71647 | 4306 ft | 262 kts | 185° |
| 2026-05-05 17:25 | 18.70462 | -69.71950 | 4034 ft | 251 kts | 185° |
| 2026-05-05 17:25 | 18.68769 | -69.72169 | 3846 ft | 241 kts | 185° |
| 2026-05-05 17:26 | 18.67139 | -69.72378 | 3668 ft | 231 kts | 185° |
| 2026-05-05 17:26 | 18.65544 | -69.72583 | 3555 ft | 230 kts | 185° |
| 2026-05-05 17:26 | 18.63969 | -69.72785 | 3475 ft | 221 kts | 185° |
| 2026-05-05 17:26 | 18.62442 | -69.72980 | 3370 ft | 221 kts | 185° |
| 2026-05-05 17:27 | 18.60932 | -69.73172 | 3289 ft | 220 kts | 184° |
| 2026-05-05 17:27 | 18.59456 | -69.73096 | 3080 ft | 207 kts | 163° |
| 2026-05-05 17:27 | 18.58113 | -69.72610 | 2768 ft | 197 kts | 158° |
| 2026-05-05 17:27 | 18.56856 | -69.72109 | 2455 ft | 190 kts | 158° |
| 2026-05-05 17:28 | 18.55662 | -69.71649 | 2272 ft | 176 kts | 159° |
| 2026-05-05 17:28 | 18.54546 | -69.71225 | 2226 ft | 165 kts | 159° |
| 2026-05-05 17:28 | 18.53467 | -69.70819 | 2201 ft | 164 kts | 159° |
| 2026-05-05 17:28 | 18.52395 | -69.70417 | 1974 ft | 164 kts | 159° |
| 2026-05-05 17:29 | 18.51320 | -69.70019 | 1726 ft | 163 kts | 159° |
| 2026-05-05 17:29 | 18.50286 | -69.69631 | 1465 ft | 151 kts | 160° |
| 2026-05-05 17:29 | 18.49350 | -69.69283 | 1195 ft | 140 kts | 160° |
| 2026-05-05 17:29 | 18.48423 | -69.68943 | 1024 ft | 140 kts | 160° |
| 2026-05-05 17:30 | 18.47508 | -69.68593 | 809 ft | 140 kts | 159° |
| 2026-05-05 17:30 | 18.46598 | -69.68243 | 642 ft | 140 kts | 160° |
| 2026-05-05 17:30 | 18.45694 | -69.67891 | 426 ft | 139 kts | 160° |
| 2026-05-05 17:30 | 18.44778 | -69.67552 | 210 ft | 139 kts | 160° |
| 2026-05-05 17:31 | 18.43866 | -69.67220 | 70 ft | 134 kts | 161° |
| 2026-05-05 17:31 | 18.43089 | -69.66932 | 76 ft | 91 kts | 163° |
| 2026-05-05 17:31 | 18.42605 | -69.66760 | 74 ft | 47 kts | 161° |
| 2026-05-05 17:31 | 18.42345 | -69.66666 | 70 ft | 21 kts | 156° |
| 2026-05-05 17:32 | 18.42212 | -69.66673 | 64 ft | 23 kts | 268° |
| 2026-05-05 17:32 | 18.42274 | -69.66823 | 73 ft | 24 kts | 321° |
| 2026-05-05 17:32 | 18.42429 | -69.66892 | 66 ft | 25 kts | 339° |
| 2026-05-05 17:32 | 18.42600 | -69.66957 | 70 ft | 27 kts | 341° |
| 2026-05-05 17:33 | 18.42780 | -69.67023 | 75 ft | 28 kts | 341° |
| 2026-05-05 17:33 | 18.42916 | -69.67073 | 69 ft | 10 kts | 340° |
| 2026-05-05 17:33 | 18.42928 | -69.67130 | 70 ft | 10 kts | 311° |
| 2026-05-05 17:33 | 18.42957 | -69.67193 | 69 ft | 10 kts | 274° |
| 2026-05-05 17:34 | 18.42961 | -69.67269 | 68 ft | 11 kts | 273° |
| 2026-05-05 17:34 | 18.42971 | -69.67360 | 65 ft | 14 kts | 296° |
| 2026-05-05 17:34 | 18.43046 | -69.67434 | 67 ft | 16 kts | 333° |
| 2026-05-05 17:34 | 18.43060 | -69.67441 | 62 ft | 0 kts | 334° |
| 2026-05-05 17:35 | 18.43061 | -69.67441 | 70 ft | 1 kts | 334° |
| 2026-05-05 17:35 | 18.43077 | -69.67448 | 66 ft | 4 kts | 342° |
| 2026-05-05 17:35 | 18.43109 | -69.67459 | 70 ft | 6 kts | 342° |
| 2026-05-05 17:36 | 18.43155 | -69.67474 | 61 ft | 8 kts | 344° |
| 2026-05-05 17:36 | 18.43216 | -69.67494 | 61 ft | 10 kts | 342° |
| 2026-05-05 17:36 | 18.43242 | -69.67511 | 61 ft | 6 kts | 302° |
| 2026-05-05 17:36 | 18.43233 | -69.67565 | 66 ft | 10 kts | 245° |
| 2026-05-05 17:37 | 18.43217 | -69.67597 | 64 ft | 0 kts | 244° |
| 2026-05-05 17:37 | 18.43217 | -69.67598 | 73 ft | 0 kts | 244° |